Time;durP1;ratioP1;P1;durP2;ratioP2;P2;SDS_P1;SDS_P2;PMS_P1;PMS_P2;Temp;Humidity;BMP_temperature;BMP_pressure;BME280_temperature;BME280_humidity;BME280_pressure;Samples;Min_cycle;Max_cycle;Signal;HPM_P1;HPM_P2
2022/08/13 00:00:59;;;;;;;8.40;5.20;;;29.60;99.90;;;;;;4974437;28;20046;-49
2022/08/13 00:03:28;;;;;;;9.68;6.15;;;29.60;99.90;;;;;;4973934;28;20054;-49
2022/08/13 00:05:54;;;;;;;9.43;6.13;;;29.70;99.90;;;;;;4973985;28;20038;-49
2022/08/13 00:08:23;;;;;;;14.07;6.70;;;29.70;99.90;;;;;;4973579;28;20050;-49
2022/08/13 00:10:50;;;;;;;8.60;5.57;;;29.70;99.90;;;;;;4988573;28;20383;-49
2022/08/13 00:13:18;;;;;;;9.77;4.53;;;29.70;99.90;;;;;;4973546;28;20031;-50
2022/08/13 00:15:46;;;;;;;8.73;4.03;;;29.60;99.90;;;;;;4973477;28;20428;-50
2022/08/13 00:18:16;;;;;;;17.63;4.45;;;29.60;99.90;;;;;;4973521;28;20446;-49
2022/08/13 00:20:48;;;;;;;8.05;3.78;;;29.60;99.90;;;;;;4973469;28;20023;-49
2022/08/13 00:23:15;;;;;;;7.45;3.28;;;29.50;99.90;;;;;;4973425;28;20054;-49
2022/08/13 00:25:42;;;;;;;5.32;2.92;;;29.50;99.90;;;;;;4973399;28;20051;-49
2022/08/13 00:28:09;;;;;;;7.63;3.53;;;29.50;99.90;;;;;;4973198;28;20093;-49
2022/08/13 00:30:38;;;;;;;4.70;2.67;;;29.50;99.90;;;;;;4973315;28;20503;-49
2022/08/13 00:33:12;;;;;;;10.07;3.00;;;29.50;99.90;;;;;;4973206;28;20034;-48
2022/08/13 00:35:41;;;;;;;4.75;3.05;;;29.50;99.90;;;;;;4973350;28;20031;-48
2022/08/13 00:38:16;;;;;;;5.40;2.60;;;29.50;99.90;;;;;;4973340;28;20026;-49
2022/08/13 00:40:47;;;;;;;6.80;2.95;;;29.60;99.90;;;;;;4972860;28;20082;-48
2022/08/13 00:43:14;;;;;;;7.07;3.30;;;29.60;99.90;;;;;;4973122;28;20046;-48
2022/08/13 00:45:41;;;;;;;4.30;3.45;;;29.60;99.90;;;;;;4973102;28;20034;-49
2022/08/13 00:50:52;;;;;;;7.50;3.67;;;29.70;99.90;;;;;;4973240;28;20070;-49
2022/08/13 00:53:19;;;;;;;8.68;3.50;;;29.70;99.90;;;;;;4972874;28;20026;-49
2022/08/13 00:55:48;;;;;;;4.43;3.33;;;29.70;99.90;;;;;;4972795;28;20035;-49
2022/08/13 00:58:19;;;;;;;6.70;2.75;;;29.70;99.90;;;;;;4972829;28;20027;-49
2022/08/13 01:00:50;;;;;;;4.30;2.95;;;29.70;99.90;;;;;;4973152;28;20055;-49
2022/08/13 01:03:17;;;;;;;8.70;3.15;;;29.70;99.90;;;;;;4972672;28;20027;-50
2022/08/13 01:05:45;;;;;;;7.00;2.80;;;29.70;99.90;;;;;;4972787;28;20033;-50
2022/08/13 01:08:12;;;;;;;3.55;2.80;;;29.80;99.90;;;;;;4972657;28;20035;-49
2022/08/13 01:10:39;;;;;;;5.65;2.72;;;29.70;99.90;;;;;;4972592;28;20023;-49
2022/08/13 01:13:09;;;;;;;;;;;29.70;99.90;;;;;;4973062;28;20038;-49
2022/08/13 01:15:36;;;;;;;5.85;2.50;;;29.70;99.90;;;;;;4972441;28;19913;-49
2022/08/13 01:18:02;;;;;;;3.83;2.38;;;29.70;99.90;;;;;;4972720;28;20030;-49
2022/08/13 01:20:31;;;;;;;6.40;2.38;;;29.70;99.90;;;;;;4972611;28;20034;-49
2022/08/13 01:22:58;;;;;;;2.88;2.42;;;29.70;99.90;;;;;;4972511;28;20050;-49
2022/08/13 01:25:27;;;;;;;3.03;2.33;;;29.70;99.90;;;;;;4972394;28;20029;-48
2022/08/13 01:27:53;;;;;;;4.47;2.33;;;29.70;99.90;;;;;;4972306;28;20145;-48
2022/08/13 01:30:21;;;;;;;2.97;2.33;;;29.70;99.90;;;;;;4972521;28;20026;-49
2022/08/13 01:32:48;;;;;;;3.28;2.60;;;29.70;99.90;;;;;;4972336;28;20260;-49
2022/08/13 01:35:20;;;;;;;4.97;2.45;;;29.70;99.90;;;;;;4987136;28;20054;-48
2022/08/13 01:37:53;;;;;;;7.40;2.25;;;29.70;99.90;;;;;;4972304;28;20432;-48
2022/08/13 01:40:19;;;;;;;3.83;2.60;;;29.70;99.90;;;;;;4972484;28;20029;-48
2022/08/13 01:42:47;;;;;;;4.55;1.63;;;29.70;99.90;;;;;;4972360;28;20031;-49
2022/08/13 01:45:14;;;;;;;2.33;2.13;;;29.70;99.90;;;;;;4972178;28;20432;-48
2022/08/13 01:50:29;;;;;;;3.67;2.72;;;29.70;99.90;;;;;;4972422;28;20033;-48
2022/08/13 01:53:01;;;;;;;3.55;2.58;;;29.70;99.90;;;;;;4975097;28;20046;-50
2022/08/13 01:55:40;;;;;;;2.95;2.40;;;29.80;99.90;;;;;;4976207;28;20062;-49
2022/08/13 01:58:08;;;;;;;3.58;2.65;;;29.80;99.90;;;;;;4976123;28;20541;-49
2022/08/13 02:00:36;;;;;;;3.55;2.20;;;29.80;99.90;;;;;;4976632;28;20047;-49
2022/08/13 02:03:04;;;;;;;3.85;2.03;;;29.80;99.90;;;;;;4976265;28;20054;-49
2022/08/13 02:05:31;;;;;;;2.70;2.50;;;29.80;99.90;;;;;;4976054;28;20375;-50
2022/08/13 02:07:57;;;;;;;2.90;2.20;;;29.80;99.90;;;;;;4975833;28;20089;-49
2022/08/13 02:10:24;;;;;;;2.83;2.30;;;29.80;99.90;;;;;;4975967;28;20058;-49
2022/08/13 02:12:50;;;;;;;4.55;3.17;;;29.80;99.90;;;;;;4975973;28;20030;-49
2022/08/13 02:15:17;;;;;;;8.98;5.30;;;29.90;99.90;;;;;;4975835;28;20027;-49
2022/08/13 02:17:43;;;;;;;5.00;2.63;;;29.90;99.90;;;;;;4975813;28;20031;-50
2022/08/13 02:20:17;;;;;;;5.47;2.70;;;29.90;99.90;;;;;;4975587;28;20487;-49
2022/08/13 02:22:45;;;;;;;4.82;2.85;;;29.90;99.90;;;;;;4975604;28;20547;-49
2022/08/13 02:25:12;;;;;;;4.93;2.63;;;29.90;99.90;;;;;;4975668;28;20062;-49
2022/08/13 02:27:40;;;;;;;;;;;29.90;99.90;;;;;;4975982;28;20094;-49
2022/08/13 02:30:09;;;;;;;5.30;2.60;;;29.90;99.90;;;;;;4975583;28;19906;-50
2022/08/13 02:32:40;;;;;;;8.88;3.42;;;29.90;99.90;;;;;;4975678;28;20030;-49
2022/08/13 02:35:08;;;;;;;3.90;2.53;;;29.80;99.90;;;;;;4975543;28;20066;-49
2022/08/13 02:37:37;;;;;;;3.28;2.10;;;29.80;99.90;;;;;;4975550;28;20027;-49
2022/08/13 02:41:37;;;;;;;6.82;3.20;;;29.80;99.90;;;;;;4975426;28;20074;-49
2022/08/13 02:42:52;;;;;;;7.15;3.63;;;29.80;99.90;;;;;;4975382;28;20034;-48
2022/08/13 02:45:21;;;;;;;2.88;2.30;;;29.80;99.90;;;;;;4975302;28;20545;-49
2022/08/13 02:47:48;;;;;;;7.43;3.33;;;29.80;99.90;;;;;;4975157;28;20031;-49
2022/08/13 02:50:14;;;;;;;4.78;2.50;;;29.80;99.90;;;;;;4975194;28;20067;-49
2022/08/13 02:52:41;;;;;;;4.03;2.90;;;29.80;99.90;;;;;;4973982;28;20023;-49
2022/08/13 02:55:08;;;;;;;4.18;2.45;;;29.80;99.90;;;;;;4975263;28;20383;-49
2022/08/13 02:57:34;;;;;;;4.73;2.20;;;29.80;99.90;;;;;;4975358;28;20479;-48
2022/08/13 03:00:00;;;;;;;3.72;2.00;;;29.80;99.90;;;;;;4982585;23;20463;-48
2022/08/13 03:02:28;;;;;;;3.15;2.13;;;29.80;99.90;;;;;;4955576;28;20027;-48
2022/08/13 03:04:53;;;;;;;3.13;1.90;;;29.80;99.90;;;;;;4954456;29;20030;-48
2022/08/13 03:07:20;;;;;;;2.20;1.80;;;29.80;99.90;;;;;;4955512;28;20035;-48
2022/08/13 03:09:46;;;;;;;3.92;2.17;;;29.80;99.90;;;;;;4955533;28;20394;-48
2022/08/13 03:12:14;;;;;;;5.18;2.40;;;29.80;99.90;;;;;;4955694;28;20453;-47
2022/08/13 03:14:43;;;;;;;4.65;3.00;;;29.80;99.90;;;;;;4955445;28;20039;-48
2022/08/13 03:17:09;;;;;;;7.95;2.60;;;29.80;99.90;;;;;;4955555;28;20023;-49
2022/08/13 03:19:34;;;;;;;3.50;3.00;;;29.80;99.90;;;;;;4955299;29;20031;-48
2022/08/13 03:22:01;;;;;;;4.20;2.60;;;29.80;99.90;;;;;;4955172;28;20023;-48
2022/08/13 03:24:26;;;;;;;3.30;1.77;;;29.80;99.90;;;;;;4955214;28;20028;-48
2022/08/13 03:26:53;;;;;;;5.03;2.60;;;29.80;99.90;;;;;;4955112;28;20046;-48
2022/08/13 03:29:19;;;;;;;4.10;2.30;;;29.70;99.90;;;;;;4955166;28;20047;-48
2022/08/13 03:31:46;;;;;;;4.38;2.60;;;29.70;99.90;;;;;;4955189;28;20023;-48
2022/08/13 03:34:12;;;;;;;5.00;2.70;;;29.70;99.90;;;;;;4955076;28;20025;-48
2022/08/13 03:36:38;;;;;;;3.95;2.30;;;29.70;99.90;;;;;;4955304;28;20050;-48
2022/08/13 03:39:05;;;;;;;5.72;2.08;;;29.60;99.90;;;;;;4955012;28;20031;-48
2022/08/13 03:41:30;;;;;;;3.63;2.03;;;29.60;99.90;;;;;;4954930;28;20027;-48
2022/08/13 03:43:58;;;;;;;5.07;2.70;;;29.60;99.90;;;;;;4954888;28;20078;-48
2022/08/13 03:46:26;;;;;;;5.68;2.50;;;29.60;99.90;;;;;;4954772;28;20384;-48
2022/08/13 03:48:52;;;;;;;5.20;2.55;;;29.60;99.90;;;;;;4954768;28;20097;-48
2022/08/13 03:51:23;;;;;;;2.65;2.45;;;29.60;99.90;;;;;;4954885;28;20035;-48
2022/08/13 03:53:49;;;;;;;7.30;2.45;;;29.60;99.90;;;;;;4954736;28;20058;-47
2022/08/13 03:56:18;;;;;;;4.22;2.00;;;29.60;99.90;;;;;;4954717;28;20129;-47
2022/08/13 03:58:45;;;;;;;5.55;2.38;;;29.60;99.90;;;;;;4954621;28;20116;-48
2022/08/13 04:01:15;;;;;;;4.97;2.60;;;29.60;99.90;;;;;;4993098;23;20046;-48
2022/08/13 04:03:41;;;;;;;8.57;2.75;;;29.60;99.90;;;;;;4993428;28;20035;-48
2022/08/13 04:06:15;;;;;;;4.63;2.97;;;29.70;99.90;;;;;;4993202;28;20019;-48
2022/08/13 04:08:43;;;;;;;5.00;2.60;;;29.70;99.90;;;;;;4991942;28;20288;-48
2022/08/13 04:11:14;;;;;;;5.28;2.38;;;29.70;99.90;;;;;;4993123;28;20065;-48
2022/08/13 04:13:41;;;;;;;7.93;2.75;;;29.70;99.90;;;;;;4993234;28;20037;-48
2022/08/13 04:16:10;;;;;;;6.30;2.35;;;29.70;99.90;;;;;;4992333;28;20092;-47
2022/08/13 04:18:40;;;;;;;4.07;2.78;;;29.70;99.90;;;;;;5007901;28;20056;-47
2022/08/13 04:21:08;;;;;;;13.48;3.03;;;29.70;99.90;;;;;;4992872;28;20035;-48
2022/08/13 04:23:38;;;;;;;4.78;3.00;;;29.70;99.90;;;;;;5007826;28;20031;-48
2022/08/13 04:26:04;;;;;;;7.20;3.10;;;29.70;99.90;;;;;;4992712;28;20551;-48
2022/08/13 04:28:30;;;;;;;5.88;2.67;;;29.70;99.90;;;;;;4992599;28;20039;-47
2022/08/13 04:30:56;;;;;;;8.13;3.40;;;29.80;99.90;;;;;;4992761;28;20050;-48
2022/08/13 04:33:22;;;;;;;6.95;3.00;;;29.80;99.90;;;;;;5007658;28;20026;-48
2022/08/13 04:35:48;;;;;;;10.65;3.08;;;29.70;99.90;;;;;;4992524;28;20121;-48
2022/08/13 04:38:15;;;;;;;7.25;2.53;;;29.70;99.90;;;;;;4992670;28;20109;-47
2022/08/13 04:40:42;;;;;;;6.00;2.23;;;29.70;99.90;;;;;;4992569;28;20029;-48
2022/08/13 04:43:10;;;;;;;9.32;2.60;;;29.80;99.90;;;;;;4992431;28;20471;-48
2022/08/13 04:45:36;;;;;;;6.65;2.17;;;29.80;99.90;;;;;;4992554;28;20121;-48
2022/08/13 04:48:07;;;;;;;8.35;2.75;;;29.80;99.90;;;;;;4992293;28;20109;-48
2022/08/13 04:50:34;;;;;;;7.07;2.80;;;29.80;99.90;;;;;;4992395;28;20022;-48
2022/08/13 04:53:05;;;;;;;9.37;2.90;;;29.80;99.90;;;;;;4992379;28;20030;-48
2022/08/13 04:55:32;;;;;;;5.75;2.53;;;29.80;99.90;;;;;;4992315;28;20073;-48
2022/08/13 04:57:57;;;;;;;6.28;2.78;;;29.80;99.90;;;;;;4992096;28;20061;-48
2022/08/13 05:00:25;;;;;;;7.90;3.55;;;29.90;99.90;;;;;;4991956;28;20070;-48
2022/08/13 05:02:52;;;;;;;12.30;2.67;;;29.90;99.90;;;;;;4992211;28;20402;-48
2022/08/13 05:05:21;;;;;;;8.77;2.75;;;29.90;99.90;;;;;;4992173;28;20026;-48
2022/08/13 05:07:51;;;;;;;6.95;2.30;;;29.90;99.90;;;;;;4992073;28;20038;-48
2022/08/13 05:10:20;;;;;;;6.38;2.63;;;29.90;99.90;;;;;;4992047;28;20022;-48
2022/08/13 05:12:47;;;;;;;12.13;2.92;;;29.90;99.90;;;;;;4992139;28;20073;-47
2022/08/13 05:15:13;;;;;;;9.05;3.15;;;29.90;99.90;;;;;;4992040;28;20057;-47
2022/08/13 05:17:40;;;;;;;9.02;2.85;;;29.90;99.90;;;;;;4991939;28;20475;-47
2022/08/13 05:20:10;;;;;;;9.00;2.63;;;30.00;99.90;;;;;;5007140;28;20416;-47
2022/08/13 05:22:36;;;;;;;11.45;2.53;;;30.00;99.90;;;;;;4991917;28;20034;-47
2022/08/13 05:25:02;;;;;;;6.00;3.03;;;30.00;99.90;;;;;;4991885;28;20030;-47
2022/08/13 05:27:28;;;;;;;7.63;2.80;;;30.00;99.90;;;;;;4989716;28;20041;-47
2022/08/13 05:29:57;;;;;;;13.93;3.38;;;30.00;99.90;;;;;;4991079;28;20034;-47
2022/08/13 05:32:22;;;;;;;8.68;2.95;;;30.00;99.90;;;;;;4991759;28;21326;-48
2022/08/13 05:34:49;;;;;;;12.38;2.75;;;30.00;99.90;;;;;;4992143;28;20058;-48
2022/08/13 05:37:16;;;;;;;11.55;2.72;;;30.10;99.90;;;;;;4991836;28;20037;-48
2022/08/13 05:39:43;;;;;;;12.07;3.42;;;30.00;99.90;;;;;;4991734;28;20072;-48
2022/08/13 05:42:09;;;;;;;;;;;30.10;99.90;;;;;;4990767;28;20042;-47
2022/08/13 05:44:35;;;;;;;11.35;3.10;;;30.10;99.90;;;;;;4991627;28;20266;-48
2022/08/13 05:47:01;;;;;;;10.65;3.35;;;30.10;99.90;;;;;;4990128;28;20034;-48
2022/08/13 05:49:27;;;;;;;12.50;3.15;;;30.10;99.90;;;;;;4991573;28;20096;-49
2022/08/13 05:51:52;;;;;;;12.75;3.60;;;30.10;99.90;;;;;;4991574;28;20023;-49
2022/08/13 05:54:19;;;;;;;15.65;3.35;;;30.20;99.90;;;;;;4991765;28;20034;-49
2022/08/13 05:56:45;;;;;;;10.25;3.63;;;30.20;99.90;;;;;;4990612;28;20042;-49
2022/08/13 06:03:24;;;;;;;8.20;3.15;;;30.20;99.90;;;;;;4991329;28;20034;-48
2022/08/13 06:04:42;;;;;;;13.48;3.70;;;30.20;99.90;;;;;;4991362;28;20121;-48
2022/08/13 06:07:09;;;;;;;7.65;2.70;;;30.20;99.90;;;;;;4991402;28;20101;-49
2022/08/13 06:09:35;;;;;;;;;;;30.20;99.90;;;;;;4991878;28;20026;-48
2022/08/13 06:12:01;;;;;;;7.18;2.80;;;30.20;99.90;;;;;;4991397;28;19912;-48
2022/08/13 06:14:31;;;;;;;9.70;3.00;;;30.20;99.90;;;;;;4991145;28;20030;-48
2022/08/13 06:16:58;;;;;;;12.90;3.63;;;30.20;99.90;;;;;;4991412;28;20019;-48
2022/08/13 06:19:26;;;;;;;7.03;3.42;;;30.20;99.90;;;;;;4991168;28;20117;-48
2022/08/13 06:21:51;;;;;;;;;;;30.10;99.90;;;;;;4991769;28;20034;-48
2022/08/13 06:24:17;;;;;;;9.38;2.97;;;30.10;99.90;;;;;;4990201;28;19948;-48
2022/08/13 06:26:43;;;;;;;10.25;2.92;;;30.10;99.90;;;;;;4991342;28;20053;-49
2022/08/13 06:29:10;;;;;;;7.95;3.10;;;30.10;99.90;;;;;;4991250;28;20038;-49
2022/08/13 06:31:39;;;;;;;9.18;3.17;;;30.10;99.90;;;;;;4991297;28;20463;-48
2022/08/13 06:34:08;;;;;;;10.02;2.90;;;30.10;99.90;;;;;;4991358;28;20038;-49
2022/08/13 06:36:37;;;;;;;8.52;3.13;;;30.10;99.90;;;;;;4991080;28;20062;-49
2022/08/13 06:39:05;;;;;;;14.55;4.30;;;30.10;99.90;;;;;;4993814;28;20022;-48
2022/08/13 06:41:33;;;;;;;9.32;3.08;;;30.10;99.90;;;;;;4994794;28;20018;-48
2022/08/13 06:43:59;;;;;;;13.88;3.30;;;30.10;99.90;;;;;;4994710;28;20395;-48
2022/08/13 06:46:28;;;;;;;6.30;3.28;;;30.10;99.90;;;;;;4994714;28;20022;-48
2022/08/13 06:48:59;;;;;;;11.68;3.42;;;30.10;99.90;;;;;;4994463;28;20053;-48
2022/08/13 06:51:25;;;;;;;8.20;3.35;;;30.00;99.90;;;;;;4994373;28;20065;-49
2022/08/13 06:53:52;;;;;;;5.75;3.08;;;30.10;99.90;;;;;;4994590;28;20504;-48
2022/08/13 06:56:20;;;;;;;5.88;2.92;;;30.10;99.90;;;;;;4994426;28;20022;-49
2022/08/13 06:58:49;;;;;;;7.25;3.17;;;30.20;99.90;;;;;;4994313;28;20041;-49
2022/08/13 07:01:17;;;;;;;5.10;2.75;;;30.20;99.90;;;;;;4994117;28;20058;-49
2022/08/13 07:03:44;;;;;;;9.45;3.15;;;30.20;99.90;;;;;;4994451;28;20073;-49
2022/08/13 07:06:25;;;;;;;8.23;2.92;;;30.10;99.90;;;;;;4994289;28;20042;-49
2022/08/13 07:08:56;;;;;;;8.13;3.25;;;30.20;99.90;;;;;;4992988;28;20447;-49
2022/08/13 07:11:23;;;;;;;9.63;2.63;;;30.20;99.90;;;;;;4994377;28;20094;-49
2022/08/13 07:14:10;;;;;;;;;;;30.20;99.90;;;;;;4994500;28;20027;-49
2022/08/13 07:16:36;;;;;;;9.02;3.45;;;30.20;99.90;;;;;;4993981;28;19997;-49
2022/08/13 07:19:03;;;;;;;13.15;5.05;;;30.30;99.90;;;;;;4994105;28;20034;-49
2022/08/13 07:21:31;;;;;;;10.73;3.65;;;30.20;99.90;;;;;;4993926;28;20467;-49
2022/08/13 07:24:00;;;;;;;10.30;3.70;;;30.20;99.90;;;;;;4993966;28;20024;-49
2022/08/13 07:26:29;;;;;;;10.98;3.70;;;30.30;99.90;;;;;;4994000;28;20054;-49
2022/08/13 07:28:56;;;;;;;8.35;3.45;;;30.30;99.90;;;;;;4993891;28;20042;-49
2022/08/13 07:31:27;;;;;;;13.68;4.00;;;30.30;99.90;;;;;;4993958;28;20026;-49
2022/08/13 07:33:54;;;;;;;9.68;3.25;;;30.30;99.90;;;;;;4993960;28;20022;-49
2022/08/13 07:36:23;;;;;;;11.30;3.55;;;30.30;99.90;;;;;;4993755;28;20034;-49
2022/08/13 07:38:51;;;;;;;6.55;3.35;;;30.30;99.90;;;;;;4993599;28;20034;-48
2022/08/13 07:41:20;;;;;;;12.20;3.70;;;30.30;99.90;;;;;;4992329;28;20030;-49
2022/08/13 07:43:47;;;;;;;7.35;3.40;;;30.40;99.90;;;;;;4993533;28;20027;-49
2022/08/13 07:46:17;;;;;;;7.93;3.53;;;30.40;99.90;;;;;;4993473;28;20430;-48
2022/08/13 07:48:51;;;;;;;6.13;3.20;;;30.50;99.90;;;;;;4992801;28;20070;-49
2022/08/13 07:51:21;;;;;;;6.78;3.42;;;30.40;99.90;;;;;;4991700;28;20068;-49
2022/08/13 07:53:50;;;;;;;8.10;3.20;;;30.50;99.90;;;;;;4993408;28;20566;-49
2022/08/13 07:56:21;;;;;;;8.45;4.68;;;30.50;99.90;;;;;;4993357;28;20472;-49
2022/08/13 07:58:47;;;;;;;9.65;3.75;;;30.50;99.90;;;;;;4993298;28;20054;-48
2022/08/13 08:01:12;;;;;;;6.22;3.67;;;30.50;99.90;;;;;;4992920;28;20073;-49
2022/08/13 08:03:41;;;;;;;7.22;3.72;;;30.60;99.90;;;;;;4993144;28;20022;-49
2022/08/13 08:06:10;;;;;;;8.38;4.60;;;30.50;99.90;;;;;;4993057;28;20058;-49
2022/08/13 08:08:39;;;;;;;8.50;3.80;;;30.60;99.90;;;;;;4993083;28;20479;-49
2022/08/13 08:11:06;;;;;;;9.30;3.95;;;30.60;99.90;;;;;;4993128;28;20465;-49
2022/08/13 08:13:34;;;;;;;8.48;3.33;;;30.60;99.90;;;;;;4993089;28;20034;-49
2022/08/13 08:16:02;;;;;;;7.13;3.63;;;30.60;99.90;;;;;;4992946;28;20026;-49
2022/08/13 08:18:27;;;;;;;;;;;30.70;99.90;;;;;;4993556;28;20110;-49
2022/08/13 08:21:05;;;;;;;9.10;3.95;;;30.70;99.90;;;;;;4993021;28;19993;-49
2022/08/13 08:23:35;;;;;;;8.02;4.00;;;30.70;99.90;;;;;;4992779;28;20030;-49
2022/08/13 08:26:07;;;;;;;7.78;3.50;;;30.70;99.90;;;;;;4992628;28;20035;-49
2022/08/13 08:28:35;;;;;;;8.75;3.38;;;30.70;99.90;;;;;;4992637;28;20042;-49
2022/08/13 08:31:06;;;;;;;5.60;2.80;;;30.70;99.90;;;;;;4992851;28;20030;-49
2022/08/13 08:33:34;;;;;;;14.02;3.00;;;30.70;99.90;;;;;;4992588;28;20042;-49
2022/08/13 08:36:02;;;;;;;5.07;2.95;;;30.80;99.90;;;;;;4992689;28;20018;-50
2022/08/13 08:44:00;;;;;;;6.45;3.05;;;30.80;99.90;;;;;;4992517;28;20213;-49
2022/08/13 08:46:33;;;;;;;8.32;2.65;;;30.80;99.90;;;;;;4992589;28;20030;-49
2022/08/13 08:49:02;;;;;;;13.52;3.10;;;30.90;99.90;;;;;;4992599;28;20125;-49
2022/08/13 08:51:29;;;;;;;7.53;2.85;;;30.90;99.90;;;;;;4992463;28;20030;-49
2022/08/13 08:53:56;;;;;;;8.52;3.33;;;30.90;99.90;;;;;;4991082;28;20033;-48
2022/08/13 08:56:22;;;;;;;6.53;2.60;;;31.00;99.90;;;;;;4992213;28;20026;-48
2022/08/13 08:58:49;;;;;;;5.53;2.97;;;31.00;99.90;;;;;;4992134;28;20161;-49
2022/08/13 09:01:21;;;;;;;7.28;3.13;;;31.10;99.90;;;;;;4991713;28;20061;-49
2022/08/13 09:03:46;;;;;;;5.20;3.00;;;31.10;99.90;;;;;;4991886;28;20092;-49
2022/08/13 09:06:12;;;;;;;8.50;3.00;;;31.10;99.90;;;;;;4991869;28;20018;-49
2022/08/13 09:08:39;;;;;;;10.15;3.28;;;31.10;99.90;;;;;;4991673;28;20038;-49
2022/08/13 09:11:05;;;;;;;11.50;3.42;;;31.10;99.90;;;;;;4990619;28;20176;-48
2022/08/13 09:13:32;;;;;;;4.75;3.00;;;31.20;99.90;;;;;;4992018;28;20034;-49
2022/08/13 09:15:58;;;;;;;11.00;3.72;;;31.20;99.90;;;;;;4991875;28;20109;-49
2022/08/13 09:18:24;;;;;;;8.70;2.80;;;31.20;99.90;;;;;;4991967;28;20022;-49
2022/08/13 09:20:50;;;;;;;6.68;3.03;;;31.20;99.90;;;;;;4991777;28;20053;-48
2022/08/13 09:23:17;;;;;;;11.60;3.72;;;31.20;99.90;;;;;;4991576;28;20490;-49
2022/08/13 09:25:48;;;;;;;10.98;3.55;;;31.20;99.90;;;;;;4991841;28;20391;-49
2022/08/13 09:28:24;;;;;;;6.82;3.30;;;31.20;99.90;;;;;;4991744;28;20042;-49
2022/08/13 09:30:55;;;;;;;6.05;3.17;;;31.20;99.90;;;;;;4991637;28;20561;-49
2022/08/13 09:33:23;;;;;;;10.63;2.90;;;31.20;99.90;;;;;;4991623;28;20390;-49
2022/08/13 09:35:53;;;;;;;12.52;3.53;;;31.20;99.90;;;;;;4991741;28;20026;-49
2022/08/13 09:38:21;;;;;;;10.30;3.08;;;31.20;99.90;;;;;;4991393;28;20475;-49
2022/08/13 09:41:20;;;;;;;9.38;3.53;;;31.30;99.90;;;;;;4991418;28;20378;-49
2022/08/13 09:43:47;;;;;;;7.80;3.38;;;31.30;99.90;;;;;;4990096;28;20041;-49
2022/08/13 09:46:17;;;;;;;18.55;3.58;;;31.30;99.90;;;;;;4991403;28;20022;-49
2022/08/13 09:48:44;;;;;;;10.07;3.60;;;31.40;99.90;;;;;;4991314;28;20038;-49
2022/08/13 09:51:13;;;;;;;12.98;3.63;;;31.50;99.90;;;;;;4991418;28;20026;-49
2022/08/13 09:53:40;;;;;;;12.68;3.40;;;31.50;99.90;;;;;;4991508;28;20081;-49
2022/08/13 09:56:06;;;;;;;11.52;3.50;;;31.50;99.90;;;;;;4991484;28;20069;-49
2022/08/13 09:58:32;;;;;;;16.95;4.18;;;31.70;99.90;;;;;;4991581;28;20058;-48
2022/08/13 10:00:58;;;;;;;11.07;3.70;;;31.70;99.90;;;;;;4991220;28;20491;-49
2022/08/13 10:03:24;;;;;;;17.48;4.22;;;31.80;99.90;;;;;;4991318;28;20498;-49
2022/08/13 10:05:51;;;;;;;7.85;3.92;;;31.80;99.90;;;;;;4991398;28;20034;-49
2022/08/13 10:08:18;;;;;;;9.52;3.90;;;31.90;99.90;;;;;;4991276;28;20034;-49
2022/08/13 10:10:46;;;;;;;8.32;3.47;;;31.80;99.90;;;;;;4991332;28;20033;-49
2022/08/13 10:13:13;;;;;;;8.35;3.65;;;31.90;99.90;;;;;;4992793;28;20018;-49
2022/08/13 10:15:39;;;;;;;8.45;3.78;;;31.90;99.90;;;;;;4995198;28;20034;-49
2022/08/13 10:18:06;;;;;;;12.77;3.85;;;32.00;99.90;;;;;;4995347;28;20023;-49
2022/08/13 10:20:36;;;;;;;20.92;3.95;;;32.00;99.90;;;;;;4994963;28;20026;-49
2022/08/13 10:23:06;;;;;;;18.95;4.28;;;32.00;99.90;;;;;;4995205;28;20374;-49
2022/08/13 10:25:32;;;;;;;16.65;4.15;;;32.00;99.90;;;;;;4995021;28;20030;-49
2022/08/13 10:27:59;;;;;;;17.45;4.25;;;32.00;99.90;;;;;;4994767;28;20034;-49
2022/08/13 10:30:27;;;;;;;14.98;3.42;;;32.00;99.90;;;;;;4994930;28;20427;-49
2022/08/13 10:32:55;;;;;;;24.00;4.70;;;32.00;99.90;;;;;;4994887;28;20046;-49
2022/08/13 10:35:28;;;;;;;13.30;4.60;;;32.00;99.90;;;;;;4993515;28;20030;-49
2022/08/13 10:37:56;;;;;;;21.63;4.93;;;32.00;99.90;;;;;;4994786;28;20109;-48
2022/08/13 10:40:23;;;;;;;11.90;4.32;;;32.00;99.90;;;;;;4994703;28;20498;-49
2022/08/13 10:42:51;;;;;;;16.65;4.30;;;32.00;99.90;;;;;;4994613;28;20027;-49
2022/08/13 10:45:23;;;;;;;12.82;4.65;;;32.00;99.90;;;;;;4993316;28;20061;-49
2022/08/13 10:47:56;;;;;;;16.73;4.40;;;32.00;99.90;;;;;;4994535;28;20093;-49
2022/08/13 10:50:30;;;;;;;12.70;4.32;;;32.00;99.90;;;;;;4994472;28;20031;-49
2022/08/13 10:52:57;;;;;;;12.82;3.80;;;32.00;99.90;;;;;;4994415;28;20436;-50
2022/08/13 10:55:24;;;;;;;17.35;4.20;;;32.10;99.90;;;;;;4994314;28;20422;-49
2022/08/13 10:57:50;;;;;;;19.90;5.17;;;32.20;99.90;;;;;;4994267;28;20034;-49
2022/08/13 11:00:16;;;;;;;13.25;4.50;;;32.20;99.90;;;;;;4993930;28;20490;-49
2022/08/13 11:02:43;;;;;;;12.15;3.97;;;32.30;99.90;;;;;;4994065;28;20065;-49
2022/08/13 11:05:11;;;;;;;16.10;4.10;;;32.30;99.90;;;;;;4994274;28;20027;-49
2022/08/13 11:07:39;;;;;;;17.98;4.05;;;32.40;99.90;;;;;;4993004;28;20506;-49
2022/08/13 11:10:06;;;;;;;11.15;4.30;;;32.40;99.90;;;;;;4994150;28;20029;-49
2022/08/13 11:12:33;;;;;;;;;;;32.40;99.90;;;;;;4994666;28;20041;-49
2022/08/13 11:14:59;;;;;;;16.88;4.80;;;32.40;99.90;;;;;;4994190;28;20385;-49
2022/08/13 11:17:25;;;;;;;17.65;5.28;;;32.50;99.90;;;;;;4993916;28;20034;-49
2022/08/13 11:19:52;;;;;;;17.33;5.22;;;32.50;99.90;;;;;;4993989;28;20038;-49
2022/08/13 11:22:19;;;;;;;12.98;4.93;;;32.60;99.90;;;;;;4994037;28;20027;-49
2022/08/13 11:24:45;;;;;;;16.08;5.43;;;32.60;99.90;;;;;;4993866;28;20106;-49
2022/08/13 11:27:11;;;;;;;14.80;5.03;;;32.60;99.90;;;;;;4993942;28;20114;-49
2022/08/13 11:29:37;;;;;;;13.88;4.60;;;32.70;99.90;;;;;;4993861;28;20410;-49
2022/08/13 11:32:04;;;;;;;17.77;5.03;;;32.70;99.90;;;;;;4993568;28;20018;-49
2022/08/13 11:34:30;;;;;;;;;;;32.70;99.90;;;;;;4994087;28;20026;-49
2022/08/13 11:36:56;;;;;;;19.83;4.10;;;32.70;99.90;;;;;;4993595;28;19913;-48
2022/08/13 11:39:23;;;;;;;21.45;4.72;;;32.80;99.90;;;;;;4993308;28;20121;-49
2022/08/13 11:41:49;;;;;;;13.50;4.38;;;32.80;99.90;;;;;;4993587;28;20033;-49
2022/08/13 11:44:16;;;;;;;14.32;4.53;;;32.80;99.90;;;;;;4992073;28;20430;-49
2022/08/13 11:46:42;;;;;;;12.85;3.97;;;32.90;99.90;;;;;;4993648;28;20030;-49
2022/08/13 11:49:07;;;;;;;15.00;4.07;;;32.90;99.90;;;;;;4992225;28;20041;-48
2022/08/13 11:51:33;;;;;;;15.95;5.20;;;32.90;99.90;;;;;;4993205;28;20026;-49
2022/08/13 11:53:59;;;;;;;12.05;4.22;;;32.90;99.90;;;;;;4993277;28;20026;-49
2022/08/13 11:56:25;;;;;;;14.05;4.00;;;32.90;99.90;;;;;;4993362;28;20494;-49
2022/08/13 11:58:54;;;;;;;15.52;4.78;;;32.90;99.90;;;;;;4993188;28;20045;-49
2022/08/13 12:01:22;;;;;;;24.02;5.20;;;33.00;99.90;;;;;;4993062;28;20402;-49
2022/08/13 12:03:48;;;;;;;15.40;4.28;;;33.00;99.90;;;;;;4993303;28;20026;-49
2022/08/13 12:06:14;;;;;;;14.70;4.40;;;33.10;99.90;;;;;;4993176;28;20101;-49
2022/08/13 12:08:40;;;;;;;19.65;4.07;;;33.20;99.90;;;;;;4993098;28;20402;-49
2022/08/13 12:11:06;;;;;;;13.35;4.60;;;33.20;99.90;;;;;;4992979;28;20109;-49
2022/08/13 12:13:31;;;;;;;16.73;4.22;;;33.20;99.90;;;;;;4992909;28;20486;-49
2022/08/13 12:15:57;;;;;;;15.50;3.67;;;33.20;99.90;;;;;;4992731;28;20054;-49
2022/08/13 12:18:23;;;;;;;18.55;3.85;;;33.30;99.90;;;;;;4992899;28;20084;-49
2022/08/13 12:20:49;;;;;;;14.88;3.92;;;33.30;99.90;;;;;;4992911;28;20104;-49
2022/08/13 12:23:15;;;;;;;21.70;4.07;;;33.40;99.90;;;;;;4992885;28;20161;-49
2022/08/13 12:25:41;;;;;;;13.13;4.10;;;33.40;99.90;;;;;;4993053;28;20198;-49
2022/08/13 12:28:19;;;;;;;13.23;3.58;;;33.50;99.90;;;;;;4992535;28;20455;-49
2022/08/13 12:30:51;;;;;;;20.25;4.20;;;33.50;99.90;;;;;;4992946;28;20034;-49
2022/08/13 12:33:18;;;;;;;14.00;4.38;;;33.60;99.90;;;;;;4992728;28;20034;-49
2022/08/13 12:35:44;;;;;;;14.77;4.47;;;33.60;99.90;;;;;;4992312;28;20034;-49
2022/08/13 12:38:13;;;;;;;14.35;3.45;;;33.60;99.90;;;;;;4992692;28;20058;-49
2022/08/13 12:40:42;;;;;;;18.17;4.18;;;33.60;99.90;;;;;;4992307;28;20034;-49
2022/08/13 12:43:08;;;;;;;16.50;5.45;;;33.70;99.90;;;;;;4992400;28;20061;-49
2022/08/13 12:45:36;;;;;;;19.23;4.25;;;33.70;99.90;;;;;;4992297;28;20030;-49
2022/08/13 12:48:06;;;;;;;21.52;4.22;;;33.80;99.90;;;;;;4992333;28;20402;-49
2022/08/13 12:50:33;;;;;;;11.60;4.00;;;33.80;99.90;;;;;;4992303;28;20479;-49
2022/08/13 12:52:59;;;;;;;16.63;3.63;;;33.90;99.90;;;;;;4991066;28;20038;-48
2022/08/13 12:55:25;;;;;;;11.38;3.35;;;33.90;99.90;;;;;;4992246;28;20037;-48
2022/08/13 12:57:51;;;;;;;14.75;3.88;;;34.00;99.90;;;;;;4992170;28;20026;-49
2022/08/13 13:00:17;;;;;;;13.65;4.00;;;34.00;99.90;;;;;;4992108;28;20046;-49
2022/08/13 13:02:43;;;;;;;14.65;4.78;;;34.00;99.90;;;;;;4992116;28;20088;-49